M V Legend II — HP5804 — position and weather

sailwx.info

Track history (hours):
 
Tides and Currents Weather Stations Pressure Air Temp Water Temp Dewpoint Dewpoint Depression Visibility Wind Speed Wind Dir Waves Ship Positions

M V Legend II

Last reported at 2018-Jun-22 05:23 UTC. Time now 2018-Jun-24 14:14 UTC.
Position N 25°40' W 079°40'.

Length 49 m.

MMSI: 370375000.

Date/timePositionNaut miles runAvg speedWind from/ knotsBaromVisibWave heightAir tempDewpointWater temp
2018-Jun-22 05:23N 25°40' W 079°40'3 7.9
2018-Jun-22 05:00N 25°41' W 079°43'4 7.8
2018-Jun-22 04:30N 25°42' W 079°47'4 7.9
2018-Jun-22 04:00N 25°43' W 079°52'4 8.1
2018-Jun-22 03:30N 25°44' W 079°56'4 8.4
2018-Jun-22 03:00N 25°45' W 080°00'4 8.6
2018-Jun-22 02:30N 25°46' W 080°05'4 8.9
2018-Jun-22 02:00N 25°46' W 080°10'2 3.5
2018-Jun-22 01:30N 25°46' W 080°12'2 3.3
2018-Jun-22 00:59N 25°47' W 080°14'1 2.5
2018-Jun-22 00:30N 25°48' W 080°15'0 0.0
2018-Jun-22 00:00N 25°48' W 080°15'0 0.0
2018-Jun-21 23:30N 25°48' W 080°15'0 0.0
2018-Jun-21 23:00N 25°48' W 080°15'0 0.0
2018-Jun-21 22:30N 25°48' W 080°15'0 0.0
2018-Jun-21 22:00N 25°48' W 080°15'0 0.0
2018-Jun-21 21:30N 25°48' W 080°15'0 0.0
2018-Jun-21 21:00N 25°48' W 080°15'0 0.0
2018-Jun-21 20:30N 25°48' W 080°15'0 0.0
2018-Jun-21 20:00N 25°48' W 080°15'0 0.0
2018-Jun-21 19:30N 25°48' W 080°15'0 0.0
2018-Jun-21 19:00N 25°48' W 080°15'0 0.0
2018-Jun-21 18:30N 25°48' W 080°15'0 0.0
2018-Jun-21 18:00N 25°48' W 080°15'0 0.0
2018-Jun-21 17:30N 25°48' W 080°15'0 0.0
2018-Jun-21 17:00N 25°48' W 080°15'0 0.0
2018-Jun-21 16:30N 25°48' W 080°15'0 0.0
2018-Jun-21 16:00N 25°48' W 080°15'0 0.0
2018-Jun-21 15:30N 25°48' W 080°15'0 0.0
2018-Jun-21 15:00N 25°48' W 080°15'0 0.0
2018-Jun-21 14:30N 25°48' W 080°15'0 0.0
2018-Jun-21 14:00N 25°48' W 080°15'0 0.0
2018-Jun-21 13:30N 25°48' W 080°15'0 0.0
2018-Jun-21 13:00N 25°48' W 080°15'0 0.0
2018-Jun-21 12:29N 25°48' W 080°15'0 0.0
2018-Jun-21 12:00N 25°48' W 080°15'0 0.0
2018-Jun-21 11:30N 25°48' W 080°15'0 0.0
2018-Jun-21 11:00N 25°48' W 080°15'0 0.0
2018-Jun-21 10:30N 25°48' W 080°15'0 0.0
2018-Jun-21 10:00N 25°48' W 080°15'0 0.0
2018-Jun-21 09:30N 25°48' W 080°15'0 0.0
2018-Jun-21 09:00N 25°48' W 080°15'0 0.0
2018-Jun-21 08:30N 25°48' W 080°15'0 0.0
2018-Jun-21 08:00N 25°48' W 080°15'0 0.0
2018-Jun-21 07:30N 25°48' W 080°15'0 0.0
2018-Jun-21 07:00N 25°48' W 080°15'0 0.0
2018-Jun-21 06:30N 25°48' W 080°15'0 0.0
2018-Jun-21 06:00N 25°48' W 080°15'0 0.0
2018-Jun-21 05:30N 25°48' W 080°15'0 0.0
2018-Jun-21 05:00N 25°48' W 080°15'0 0.0
2018-Jun-21 04:30N 25°48' W 080°15'0 0.0
2018-Jun-21 04:00N 25°48' W 080°15'1 1.2
2018-Jun-21 03:30N 25°48' W 080°14'1 2.9
2018-Jun-21 03:00N 25°47' W 080°13'1 2.6
2018-Jun-21 02:30N 25°46' W 080°12'1 1.9
2018-Jun-21 02:01N 25°46' W 080°11'2 4.2
2018-Jun-21 01:30N 25°46' W 080°08'4 8.5
2018-Jun-21 01:00N 25°46' W 080°04'510.4
2018-Jun-21 00:30N 25°43' W 079°58'510.5
2018-Jun-21 00:00N 25°41' W 079°53'510.6
2018-Jun-20 23:30N 25°39' W 079°48'510.4
2018-Jun-20 23:00N 25°37' W 079°42'510.3
2018-Jun-20 22:30N 25°35' W 079°37'6 0.4
2018-Jun-20 07:54N 25°37' W 079°44'3 7.4
2018-Jun-20 07:29N 25°38' W 079°47'4 7.5
2018-Jun-20 07:00N 25°40' W 079°51'4 7.3
2018-Jun-20 06:30N 25°41' W 079°54'4 7.4
2018-Jun-20 06:00N 25°43' W 079°58'4 7.3
2018-Jun-20 05:30N 25°44' W 080°02'4 8.0
2018-Jun-20 05:00N 25°46' W 080°06'4 7.5
2018-Jun-20 04:30N 25°46' W 080°10'2 3.4
2018-Jun-20 04:00N 25°46' W 080°12'1 2.4
2018-Jun-20 03:30N 25°47' W 080°13'1 2.4
2018-Jun-20 03:00N 25°47' W 080°14'1 1.9
2018-Jun-20 02:30N 25°48' W 080°15'0 0.0
2018-Jun-20 02:00N 25°48' W 080°15'0 0.0
2018-Jun-20 01:30N 25°48' W 080°15'0 0.0
2018-Jun-20 01:00N 25°48' W 080°15'0 0.0
2018-Jun-20 00:30N 25°48' W 080°15'0 0.0
2018-Jun-20 00:00N 25°48' W 080°15'0 0.0
2018-Jun-19 23:30N 25°48' W 080°15'0 0.0
2018-Jun-19 22:59N 25°48' W 080°15'0 0.0
2018-Jun-19 22:30N 25°48' W 080°15'0 0.0
2018-Jun-19 22:00N 25°48' W 080°15'0 0.0
2018-Jun-19 21:30N 25°48' W 080°15'0 0.0
2018-Jun-19 21:00N 25°48' W 080°15'0 0.0
2018-Jun-19 20:30N 25°48' W 080°15'0 0.0
2018-Jun-19 20:00N 25°48' W 080°15'0 0.0
2018-Jun-19 19:30N 25°48' W 080°15'0 0.0
2018-Jun-19 18:59N 25°48' W 080°15'0 0.0
2018-Jun-19 18:30N 25°48' W 080°15'1 1.8
2018-Jun-19 18:00N 25°47' W 080°14'1 2.8
2018-Jun-19 17:30N 25°47' W 080°13'1 2.3
2018-Jun-19 17:00N 25°46' W 080°12'2 3.5
2018-Jun-19 16:30N 25°46' W 080°10'510.3
2018-Jun-19 16:01N 25°46' W 080°04'5 9.7
2018-Jun-19 15:31N 25°47' W 079°59'5 9.2
2018-Jun-19 15:00N 25°47' W 079°53'5 9.5
2018-Jun-19 14:30N 25°47' W 079°48'5 9.4
2018-Jun-19 13:59N 25°48' W 079°43'5 9.6
2018-Jun-19 13:31N 25°48' W 079°38'6 9.8
2018-Jun-19 12:56N 25°49' W 079°31'  
2018-Jun-16 08:59N 25°38' W 079°33'4 8.2
2018-Jun-16 08:29N 25°39' W 079°38'4 8.5
2018-Jun-16 08:00N 25°40' W 079°42'5 8.3
2018-Jun-16 07:27N 25°41' W 079°47'4 8.0
2018-Jun-16 07:00N 25°42' W 079°51'4 8.3
2018-Jun-16 06:30N 25°43' W 079°55'4 8.2
2018-Jun-16 06:01N 25°44' W 079°60'4 8.6
2018-Jun-16 05:30N 25°46' W 080°04'4 8.9
2018-Jun-16 05:00N 25°46' W 080°09'2 4.5
2018-Jun-16 04:30N 25°46' W 080°12'1 2.5
2018-Jun-16 04:00N 25°47' W 080°13'1 2.8
2018-Jun-16 03:30N 25°47' W 080°14'1 1.5
2018-Jun-16 03:01N 25°48' W 080°15'0 0.0
2018-Jun-16 02:30N 25°48' W 080°15'0 0.0
2018-Jun-16 02:00N 25°48' W 080°15'0 0.0
2018-Jun-16 01:30N 25°48' W 080°15'0 0.0
2018-Jun-16 01:00N 25°48' W 080°15'0 0.0
2018-Jun-16 00:30N 25°48' W 080°15'0 0.0
2018-Jun-16 00:00N 25°48' W 080°15'0 0.0
2018-Jun-15 23:31N 25°48' W 080°15'0 0.0
2018-Jun-15 23:00N 25°48' W 080°15'0 0.0
2018-Jun-15 22:29N 25°48' W 080°15'0 0.0
2018-Jun-15 22:01N 25°48' W 080°15'0 0.0
2018-Jun-15 21:30N 25°48' W 080°15'0 0.0
2018-Jun-15 21:00N 25°48' W 080°15'0 0.0
2018-Jun-15 20:30N 25°48' W 080°15'0 0.0
2018-Jun-15 20:00N 25°48' W 080°15'0 0.0
2018-Jun-15 19:30N 25°48' W 080°15'0 0.0
2018-Jun-15 19:00N 25°48' W 080°15'0 0.0
2018-Jun-15 18:30N 25°48' W 080°15'0 0.0
2018-Jun-15 18:00N 25°48' W 080°15'0 0.0
2018-Jun-15 17:31N 25°48' W 080°15'0 0.0
2018-Jun-15 16:59N 25°48' W 080°15'0 0.0
2018-Jun-15 16:30N 25°48' W 080°15'0 0.0
2018-Jun-15 16:00N 25°48' W 080°15'0 0.0
2018-Jun-15 15:31N 25°48' W 080°15'0 0.0
2018-Jun-15 15:01N 25°48' W 080°15'0 0.0
2018-Jun-15 14:31N 25°48' W 080°15'0 0.0
2018-Jun-15 14:00N 25°48' W 080°15'0 0.0
2018-Jun-15 13:29N 25°48' W 080°15'0 0.0
2018-Jun-15 13:00N 25°48' W 080°15'0 0.0
2018-Jun-15 12:30N 25°48' W 080°15'0 0.0
2018-Jun-15 12:00N 25°48' W 080°15'0 0.0
2018-Jun-15 11:30N 25°48' W 080°15'0 0.0
2018-Jun-15 11:00N 25°48' W 080°15'0 0.0
2018-Jun-15 10:31N 25°48' W 080°15'0 0.0
2018-Jun-15 10:00N 25°48' W 080°15'0 0.0
2018-Jun-15 09:30N 25°48' W 080°15'0 0.0
2018-Jun-15 09:00N 25°48' W 080°15'0 0.0
2018-Jun-15 08:30N 25°48' W 080°15'0 0.0
2018-Jun-15 07:59N 25°48' W 080°15'0 0.0
2018-Jun-15 07:30N 25°48' W 080°15'0 0.0
2018-Jun-15 07:00N 25°48' W 080°15'0 0.0
2018-Jun-15 06:30N 25°48' W 080°15'0 0.0
2018-Jun-15 06:00N 25°48' W 080°15'0 0.0
2018-Jun-15 05:31N 25°48' W 080°15'0 0.0
2018-Jun-15 05:00N 25°48' W 080°15'0 0.0
2018-Jun-15 04:31N 25°48' W 080°15'0 0.0
2018-Jun-15 04:00N 25°48' W 080°15'0 0.0
2018-Jun-15 03:30N 25°48' W 080°15'0 0.0
2018-Jun-15 03:00N 25°48' W 080°15'0 0.0
2018-Jun-15 02:30N 25°48' W 080°15'0 0.0
2018-Jun-15 02:01N 25°48' W 080°15'0 0.0
2018-Jun-15 01:30N 25°48' W 080°15'0 0.9
2018-Jun-15 01:00N 25°48' W 080°14'1 2.8
2018-Jun-15 00:31N 25°47' W 080°13'1 2.8
2018-Jun-15 00:01N 25°46' W 080°12'1 2.4
2018-Jun-14 23:30N 25°46' W 080°11'4 8.5
2018-Jun-14 23:00N 25°46' W 080°06'510.4
2018-Jun-14 22:31N 25°44' W 080°01'611.1
2018-Jun-14 22:01N 25°42' W 079°55'610.8
2018-Jun-14 21:30N 25°40' W 079°49'510.9
2018-Jun-14 21:01N 25°37' W 079°44'4 0.3
2018-Jun-14 08:07N 25°35' W 079°40'1 8.0
2018-Jun-14 07:58N 25°36' W 079°41'4 7.7
2018-Jun-14 07:30N 25°37' W 079°45'4 7.5
2018-Jun-14 07:00N 25°39' W 079°49'4 7.2
2018-Jun-14 06:30N 25°40' W 079°52'4 7.6
2018-Jun-14 06:00N 25°42' W 079°56'4 8.1
2018-Jun-14 05:31N 25°44' W 080°00'4 8.7
2018-Jun-14 05:01N 25°45' W 080°04'4 8.7
2018-Jun-14 04:30N 25°46' W 080°09'2 4.7
2018-Jun-14 04:01N 25°46' W 080°12'2 3.1
2018-Jun-14 03:30N 25°47' W 080°13'1 2.8
2018-Jun-14 03:01N 25°48' W 080°15'0 0.6
2018-Jun-14 02:30N 25°48' W 080°15'0 0.0
2018-Jun-14 02:00N 25°48' W 080°15'0 0.0
2018-Jun-14 01:30N 25°48' W 080°15'0 0.0
2018-Jun-14 00:59N 25°48' W 080°15'0 0.0
2018-Jun-14 00:30N 25°48' W 080°15'0 0.0
2018-Jun-14 00:00N 25°48' W 080°15'0 0.0
2018-Jun-13 23:31N 25°48' W 080°15'0 0.0
2018-Jun-13 23:01N 25°48' W 080°15'0 0.0
2018-Jun-13 22:30N 25°48' W 080°15'0 0.0
2018-Jun-13 22:01N 25°48' W 080°15'0 0.0
2018-Jun-13 21:30N 25°48' W 080°15'1 2.4
2018-Jun-13 21:01N 25°47' W 080°14'1 2.5
2018-Jun-13 20:31N 25°47' W 080°12'1 2.1
2018-Jun-13 20:01N 25°46' W 080°11'1 2.5
2018-Jun-13 19:30N 25°46' W 080°10'4 7.7
2018-Jun-13 19:00N 25°46' W 080°06'510.6
2018-Jun-13 18:30N 25°45' W 080°00'611.2
2018-Jun-13 18:00N 25°43' W 079°54'511.0
2018-Jun-13 17:30N 25°42' W 079°48'510.9
2018-Jun-13 17:01N 25°40' W 079°42'610.9
2018-Jun-13 16:30N 25°39' W 079°36'910.9
2018-Jun-13 15:42N 25°37' W 079°27'9 1.1
2018-Jun-13 07:54N 25°39' W 079°37'3 8.0
2018-Jun-13 07:30N 25°40' W 079°40'4 7.6
2018-Jun-13 07:01N 25°41' W 079°44'4 7.6
2018-Jun-13 06:29N 25°42' W 079°48'4 7.7
2018-Jun-13 05:59N 25°43' W 079°52'4 8.0
2018-Jun-13 05:31N 25°44' W 079°56'4 8.4
2018-Jun-13 05:00N 25°45' W 080°01'4 8.5
2018-Jun-13 04:31N 25°46' W 080°05'4 8.6
2018-Jun-13 04:01N 25°46' W 080°10'2 3.3
2018-Jun-13 03:30N 25°46' W 080°12'1 2.9
2018-Jun-13 03:01N 25°47' W 080°13'1 2.8
2018-Jun-13 02:30N 25°48' W 080°15'0 0.3
2018-Jun-13 02:00N 25°48' W 080°15'0 0.0
2018-Jun-13 01:30N 25°48' W 080°15'0 0.0
2018-Jun-13 01:00N 25°48' W 080°15'0 0.0
2018-Jun-13 00:30N 25°48' W 080°15'0 0.0
2018-Jun-13 00:00N 25°48' W 080°15'0 0.0
2018-Jun-12 23:30N 25°48' W 080°15'0 0.0
2018-Jun-12 23:01N 25°48' W 080°15'0 0.0
2018-Jun-12 22:30N 25°48' W 080°15'0 0.0
2018-Jun-12 22:00N 25°48' W 080°15'0 0.0
2018-Jun-12 21:31N 25°48' W 080°15'0 0.0
2018-Jun-12 21:00N 25°48' W 080°15'0 0.0
2018-Jun-12 20:30N 25°48' W 080°15'1 1.8
2018-Jun-12 20:00N 25°47' W 080°14'1 2.1
2018-Jun-12 19:30N 25°47' W 080°13'1 2.2
2018-Jun-12 19:01N 25°46' W 080°12'1 1.7
2018-Jun-12 18:30N 25°46' W 080°11'2 4.2
2018-Jun-12 18:00N 25°46' W 080°09'4 8.0
2018-Jun-12 17:30N 25°46' W 080°04'510.0
2018-Jun-12 17:00N 25°47' W 079°59'5 9.8
2018-Jun-12 16:30N 25°47' W 079°53'4 8.9
2018-Jun-12 16:00N 25°47' W 079°48'5 9.1
2018-Jun-12 15:30N 25°48' W 079°43'5 9.1
2018-Jun-12 15:00N 25°48' W 079°38'5 9.4
2018-Jun-12 14:30N 25°49' W 079°33'5 9.6
2018-Jun-12 14:00N 25°49' W 079°28'  
Track history (hours):
 
Tides and Currents Weather Stations Pressure Air Temp Water Temp Dewpoint Dewpoint Depression Visibility Wind Speed Wind Dir Waves Ship Positions

M V Legend II

Last reported at 2018-Jun-22 05:23 UTC. Time now 2018-Jun-24 14:14 UTC.
Position N 25°40' W 079°40'.

Length 49 m.

MMSI: 370375000.

Date/timePositionNaut miles runAvg speedWind from/ knotsBaromVisibWave heightAir tempDewpointWater temp
2018-Jun-22 05:23N 25°40' W 079°40'3 7.9
2018-Jun-22 05:00N 25°41' W 079°43'4 7.8
2018-Jun-22 04:30N 25°42' W 079°47'4 7.9
2018-Jun-22 04:00N 25°43' W 079°52'4 8.1
2018-Jun-22 03:30N 25°44' W 079°56'4 8.4
2018-Jun-22 03:00N 25°45' W 080°00'4 8.6
2018-Jun-22 02:30N 25°46' W 080°05'4 8.9
2018-Jun-22 02:00N 25°46' W 080°10'2 3.5
2018-Jun-22 01:30N 25°46' W 080°12'2 3.3
2018-Jun-22 00:59N 25°47' W 080°14'1 2.5
2018-Jun-22 00:30N 25°48' W 080°15'0 0.0
2018-Jun-22 00:00N 25°48' W 080°15'0 0.0
2018-Jun-21 23:30N 25°48' W 080°15'0 0.0
2018-Jun-21 23:00N 25°48' W 080°15'0 0.0
2018-Jun-21 22:30N 25°48' W 080°15'0 0.0
2018-Jun-21 22:00N 25°48' W 080°15'0 0.0
2018-Jun-21 21:30N 25°48' W 080°15'0 0.0
2018-Jun-21 21:00N 25°48' W 080°15'0 0.0
2018-Jun-21 20:30N 25°48' W 080°15'0 0.0
2018-Jun-21 20:00N 25°48' W 080°15'0 0.0
2018-Jun-21 19:30N 25°48' W 080°15'0 0.0
2018-Jun-21 19:00N 25°48' W 080°15'0 0.0
2018-Jun-21 18:30N 25°48' W 080°15'0 0.0
2018-Jun-21 18:00N 25°48' W 080°15'0 0.0
2018-Jun-21 17:30N 25°48' W 080°15'0 0.0
2018-Jun-21 17:00N 25°48' W 080°15'0 0.0
2018-Jun-21 16:30N 25°48' W 080°15'0 0.0
2018-Jun-21 16:00N 25°48' W 080°15'0 0.0
2018-Jun-21 15:30N 25°48' W 080°15'0 0.0
2018-Jun-21 15:00N 25°48' W 080°15'0 0.0
2018-Jun-21 14:30N 25°48' W 080°15'0 0.0
2018-Jun-21 14:00N 25°48' W 080°15'0 0.0
2018-Jun-21 13:30N 25°48' W 080°15'0 0.0
2018-Jun-21 13:00N 25°48' W 080°15'0 0.0
2018-Jun-21 12:29N 25°48' W 080°15'0 0.0
2018-Jun-21 12:00N 25°48' W 080°15'0 0.0
2018-Jun-21 11:30N 25°48' W 080°15'0 0.0
2018-Jun-21 11:00N 25°48' W 080°15'0 0.0
2018-Jun-21 10:30N 25°48' W 080°15'0 0.0
2018-Jun-21 10:00N 25°48' W 080°15'0 0.0
2018-Jun-21 09:30N 25°48' W 080°15'0 0.0
2018-Jun-21 09:00N 25°48' W 080°15'0 0.0
2018-Jun-21 08:30N 25°48' W 080°15'0 0.0
2018-Jun-21 08:00N 25°48' W 080°15'0 0.0
2018-Jun-21 07:30N 25°48' W 080°15'0 0.0
2018-Jun-21 07:00N 25°48' W 080°15'0 0.0
2018-Jun-21 06:30N 25°48' W 080°15'0 0.0
2018-Jun-21 06:00N 25°48' W 080°15'0 0.0
2018-Jun-21 05:30N 25°48' W 080°15'0 0.0
2018-Jun-21 05:00N 25°48' W 080°15'0 0.0
2018-Jun-21 04:30N 25°48' W 080°15'0 0.0
2018-Jun-21 04:00N 25°48' W 080°15'1 1.2
2018-Jun-21 03:30N 25°48' W 080°14'1 2.9
2018-Jun-21 03:00N 25°47' W 080°13'1 2.6
2018-Jun-21 02:30N 25°46' W 080°12'1 1.9
2018-Jun-21 02:01N 25°46' W 080°11'2 4.2
2018-Jun-21 01:30N 25°46' W 080°08'4 8.5
2018-Jun-21 01:00N 25°46' W 080°04'510.4
2018-Jun-21 00:30N 25°43' W 079°58'510.5
2018-Jun-21 00:00N 25°41' W 079°53'510.6
2018-Jun-20 23:30N 25°39' W 079°48'510.4
2018-Jun-20 23:00N 25°37' W 079°42'510.3
2018-Jun-20 22:30N 25°35' W 079°37'6 0.4
2018-Jun-20 07:54N 25°37' W 079°44'3 7.4
2018-Jun-20 07:29N 25°38' W 079°47'4 7.5
2018-Jun-20 07:00N 25°40' W 079°51'4 7.3
2018-Jun-20 06:30N 25°41' W 079°54'4 7.4
2018-Jun-20 06:00N 25°43' W 079°58'4 7.3
2018-Jun-20 05:30N 25°44' W 080°02'4 8.0
2018-Jun-20 05:00N 25°46' W 080°06'4 7.5
2018-Jun-20 04:30N 25°46' W 080°10'2 3.4
2018-Jun-20 04:00N 25°46' W 080°12'1 2.4
2018-Jun-20 03:30N 25°47' W 080°13'1 2.4
2018-Jun-20 03:00N 25°47' W 080°14'1 1.9
2018-Jun-20 02:30N 25°48' W 080°15'0 0.0
2018-Jun-20 02:00N 25°48' W 080°15'0 0.0
2018-Jun-20 01:30N 25°48' W 080°15'0 0.0
2018-Jun-20 01:00N 25°48' W 080°15'0 0.0
2018-Jun-20 00:30N 25°48' W 080°15'0 0.0
2018-Jun-20 00:00N 25°48' W 080°15'0 0.0
2018-Jun-19 23:30N 25°48' W 080°15'0 0.0
2018-Jun-19 22:59N 25°48' W 080°15'0 0.0
2018-Jun-19 22:30N 25°48' W 080°15'0 0.0
2018-Jun-19 22:00N 25°48' W 080°15'0 0.0
2018-Jun-19 21:30N 25°48' W 080°15'0 0.0
2018-Jun-19 21:00N 25°48' W 080°15'0 0.0
2018-Jun-19 20:30N 25°48' W 080°15'0 0.0
2018-Jun-19 20:00N 25°48' W 080°15'0 0.0
2018-Jun-19 19:30N 25°48' W 080°15'0 0.0
2018-Jun-19 18:59N 25°48' W 080°15'0 0.0
2018-Jun-19 18:30N 25°48' W 080°15'1 1.8
2018-Jun-19 18:00N 25°47' W 080°14'1 2.8
2018-Jun-19 17:30N 25°47' W 080°13'1 2.3
2018-Jun-19 17:00N 25°46' W 080°12'2 3.5
2018-Jun-19 16:30N 25°46' W 080°10'510.3
2018-Jun-19 16:01N 25°46' W 080°04'5 9.7
2018-Jun-19 15:31N 25°47' W 079°59'5 9.2
2018-Jun-19 15:00N 25°47' W 079°53'5 9.5
2018-Jun-19 14:30N 25°47' W 079°48'5 9.4
2018-Jun-19 13:59N 25°48' W 079°43'5 9.6
2018-Jun-19 13:31N 25°48' W 079°38'6 9.8
2018-Jun-19 12:56N 25°49' W 079°31'  
2018-Jun-16 08:59N 25°38' W 079°33'4 8.2
2018-Jun-16 08:29N 25°39' W 079°38'4 8.5
2018-Jun-16 08:00N 25°40' W 079°42'5 8.3
2018-Jun-16 07:27N 25°41' W 079°47'4 8.0
2018-Jun-16 07:00N 25°42' W 079°51'4 8.3
2018-Jun-16 06:30N 25°43' W 079°55'4 8.2
2018-Jun-16 06:01N 25°44' W 079°60'4 8.6
2018-Jun-16 05:30N 25°46' W 080°04'4 8.9
2018-Jun-16 05:00N 25°46' W 080°09'2 4.5
2018-Jun-16 04:30N 25°46' W 080°12'1 2.5
2018-Jun-16 04:00N 25°47' W 080°13'1 2.8
2018-Jun-16 03:30N 25°47' W 080°14'1 1.5
2018-Jun-16 03:01N 25°48' W 080°15'0 0.0
2018-Jun-16 02:30N 25°48' W 080°15'0 0.0
2018-Jun-16 02:00N 25°48' W 080°15'0 0.0
2018-Jun-16 01:30N 25°48' W 080°15'0 0.0
2018-Jun-16 01:00N 25°48' W 080°15'0 0.0
2018-Jun-16 00:30N 25°48' W 080°15'0 0.0
2018-Jun-16 00:00N 25°48' W 080°15'0 0.0
2018-Jun-15 23:31N 25°48' W 080°15'0 0.0
2018-Jun-15 23:00N 25°48' W 080°15'0 0.0
2018-Jun-15 22:29N 25°48' W 080°15'0 0.0
2018-Jun-15 22:01N 25°48' W 080°15'0 0.0
2018-Jun-15 21:30N 25°48' W 080°15'0 0.0
2018-Jun-15 21:00N 25°48' W 080°15'0 0.0
2018-Jun-15 20:30N 25°48' W 080°15'0 0.0
2018-Jun-15 20:00N 25°48' W 080°15'0 0.0
2018-Jun-15 19:30N 25°48' W 080°15'0 0.0
2018-Jun-15 19:00N 25°48' W 080°15'0 0.0
2018-Jun-15 18:30N 25°48' W 080°15'0 0.0
2018-Jun-15 18:00N 25°48' W 080°15'0 0.0
2018-Jun-15 17:31N 25°48' W 080°15'0 0.0
2018-Jun-15 16:59N 25°48' W 080°15'0 0.0
2018-Jun-15 16:30N 25°48' W 080°15'0 0.0
2018-Jun-15 16:00N 25°48' W 080°15'0 0.0
2018-Jun-15 15:31N 25°48' W 080°15'0 0.0
2018-Jun-15 15:01N 25°48' W 080°15'0 0.0
2018-Jun-15 14:31N 25°48' W 080°15'0 0.0
2018-Jun-15 14:00N 25°48' W 080°15'0 0.0
2018-Jun-15 13:29N 25°48' W 080°15'0 0.0
2018-Jun-15 13:00N 25°48' W 080°15'0 0.0
2018-Jun-15 12:30N 25°48' W 080°15'0 0.0
2018-Jun-15 12:00N 25°48' W 080°15'0 0.0
2018-Jun-15 11:30N 25°48' W 080°15'0 0.0
2018-Jun-15 11:00N 25°48' W 080°15'0 0.0
2018-Jun-15 10:31N 25°48' W 080°15'0 0.0
2018-Jun-15 10:00N 25°48' W 080°15'0 0.0
2018-Jun-15 09:30N 25°48' W 080°15'0 0.0
2018-Jun-15 09:00N 25°48' W 080°15'0 0.0
2018-Jun-15 08:30N 25°48' W 080°15'0 0.0
2018-Jun-15 07:59N 25°48' W 080°15'0 0.0
2018-Jun-15 07:30N 25°48' W 080°15'0 0.0
2018-Jun-15 07:00N 25°48' W 080°15'0 0.0
2018-Jun-15 06:30N 25°48' W 080°15'0 0.0
2018-Jun-15 06:00N 25°48' W 080°15'0 0.0
2018-Jun-15 05:31N 25°48' W 080°15'0 0.0
2018-Jun-15 05:00N 25°48' W 080°15'0 0.0
2018-Jun-15 04:31N 25°48' W 080°15'0 0.0
2018-Jun-15 04:00N 25°48' W 080°15'0 0.0
2018-Jun-15 03:30N 25°48' W 080°15'0 0.0
2018-Jun-15 03:00N 25°48' W 080°15'0 0.0
2018-Jun-15 02:30N 25°48' W 080°15'0 0.0
2018-Jun-15 02:01N 25°48' W 080°15'0 0.0
2018-Jun-15 01:30N 25°48' W 080°15'0 0.9
2018-Jun-15 01:00N 25°48' W 080°14'1 2.8
2018-Jun-15 00:31N 25°47' W 080°13'1 2.8
2018-Jun-15 00:01N 25°46' W 080°12'1 2.4
2018-Jun-14 23:30N 25°46' W 080°11'4 8.5
2018-Jun-14 23:00N 25°46' W 080°06'510.4
2018-Jun-14 22:31N 25°44' W 080°01'611.1
2018-Jun-14 22:01N 25°42' W 079°55'610.8
2018-Jun-14 21:30N 25°40' W 079°49'510.9
2018-Jun-14 21:01N 25°37' W 079°44'4 0.3
2018-Jun-14 08:07N 25°35' W 079°40'1 8.0
2018-Jun-14 07:58N 25°36' W 079°41'4 7.7
2018-Jun-14 07:30N 25°37' W 079°45'4 7.5
2018-Jun-14 07:00N 25°39' W 079°49'4 7.2
2018-Jun-14 06:30N 25°40' W 079°52'4 7.6
2018-Jun-14 06:00N 25°42' W 079°56'4 8.1
2018-Jun-14 05:31N 25°44' W 080°00'4 8.7
2018-Jun-14 05:01N 25°45' W 080°04'4 8.7
2018-Jun-14 04:30N 25°46' W 080°09'2 4.7
2018-Jun-14 04:01N 25°46' W 080°12'2 3.1
2018-Jun-14 03:30N 25°47' W 080°13'1 2.8
2018-Jun-14 03:01N 25°48' W 080°15'0 0.6
2018-Jun-14 02:30N 25°48' W 080°15'0 0.0
2018-Jun-14 02:00N 25°48' W 080°15'0 0.0
2018-Jun-14 01:30N 25°48' W 080°15'0 0.0
2018-Jun-14 00:59N 25°48' W 080°15'0 0.0
2018-Jun-14 00:30N 25°48' W 080°15'0 0.0
2018-Jun-14 00:00N 25°48' W 080°15'0 0.0
2018-Jun-13 23:31N 25°48' W 080°15'0 0.0
2018-Jun-13 23:01N 25°48' W 080°15'0 0.0
2018-Jun-13 22:30N 25°48' W 080°15'0 0.0
2018-Jun-13 22:01N 25°48' W 080°15'0 0.0
2018-Jun-13 21:30N 25°48' W 080°15'1 2.4
2018-Jun-13 21:01N 25°47' W 080°14'1 2.5
2018-Jun-13 20:31N 25°47' W 080°12'1 2.1
2018-Jun-13 20:01N 25°46' W 080°11'1 2.5
2018-Jun-13 19:30N 25°46' W 080°10'4 7.7
2018-Jun-13 19:00N 25°46' W 080°06'510.6
2018-Jun-13 18:30N 25°45' W 080°00'611.2
2018-Jun-13 18:00N 25°43' W 079°54'511.0
2018-Jun-13 17:30N 25°42' W 079°48'510.9
2018-Jun-13 17:01N 25°40' W 079°42'610.9
2018-Jun-13 16:30N 25°39' W 079°36'910.9
2018-Jun-13 15:42N 25°37' W 079°27'9 1.1
2018-Jun-13 07:54N 25°39' W 079°37'3 8.0
2018-Jun-13 07:30N 25°40' W 079°40'4 7.6
2018-Jun-13 07:01N 25°41' W 079°44'4 7.6
2018-Jun-13 06:29N 25°42' W 079°48'4 7.7
2018-Jun-13 05:59N 25°43' W 079°52'4 8.0
2018-Jun-13 05:31N 25°44' W 079°56'4 8.4
2018-Jun-13 05:00N 25°45' W 080°01'4 8.5
2018-Jun-13 04:31N 25°46' W 080°05'4 8.6
2018-Jun-13 04:01N 25°46' W 080°10'2 3.3
2018-Jun-13 03:30N 25°46' W 080°12'1 2.9
2018-Jun-13 03:01N 25°47' W 080°13'1 2.8
2018-Jun-13 02:30N 25°48' W 080°15'0 0.3
2018-Jun-13 02:00N 25°48' W 080°15'0 0.0
2018-Jun-13 01:30N 25°48' W 080°15'0 0.0
2018-Jun-13 01:00N 25°48' W 080°15'0 0.0
2018-Jun-13 00:30N 25°48' W 080°15'0 0.0
2018-Jun-13 00:00N 25°48' W 080°15'0 0.0
2018-Jun-12 23:30N 25°48' W 080°15'0 0.0
2018-Jun-12 23:01N 25°48' W 080°15'0 0.0
2018-Jun-12 22:30N 25°48' W 080°15'0 0.0
2018-Jun-12 22:00N 25°48' W 080°15'0 0.0
2018-Jun-12 21:31N 25°48' W 080°15'0 0.0
2018-Jun-12 21:00N 25°48' W 080°15'0 0.0
2018-Jun-12 20:30N 25°48' W 080°15'1 1.8
2018-Jun-12 20:00N 25°47' W 080°14'1 2.1
2018-Jun-12 19:30N 25°47' W 080°13'1 2.2
2018-Jun-12 19:01N 25°46' W 080°12'1 1.7
2018-Jun-12 18:30N 25°46' W 080°11'2 4.2
2018-Jun-12 18:00N 25°46' W 080°09'4 8.0
2018-Jun-12 17:30N 25°46' W 080°04'510.0
2018-Jun-12 17:00N 25°47' W 079°59'5 9.8
2018-Jun-12 16:30N 25°47' W 079°53'4 8.9
2018-Jun-12 16:00N 25°47' W 079°48'5 9.1
2018-Jun-12 15:30N 25°48' W 079°43'5 9.1
2018-Jun-12 15:00N 25°48' W 079°38'5 9.4
2018-Jun-12 14:30N 25°49' W 079°33'5 9.6
2018-Jun-12 14:00N 25°49' W 079°28'  

Dump ship's entire track history